sensor_id;sensor_type;location;lat;lon;timestamp;P1;durP1;ratioP1;P2;durP2;ratioP2
6436;SDS011;3251;53.550;9.918;2023-09-18T07:01:56;7.90;;;7.20;;
6436;SDS011;3251;53.550;9.918;2023-09-18T07:04:22;9.30;;;7.60;;
6436;SDS011;3251;53.550;9.918;2023-09-18T07:06:49;8.23;;;7.43;;
6436;SDS011;3251;53.550;9.918;2023-09-18T07:09:15;7.70;;;7.00;;
6436;SDS011;3251;53.550;9.918;2023-09-18T07:11:43;12.80;;;8.07;;
6436;SDS011;3251;53.550;9.918;2023-09-18T07:14:09;8.07;;;7.37;;
6436;SDS011;3251;53.550;9.918;2023-09-18T07:16:35;9.17;;;7.83;;
6436;SDS011;3251;53.550;9.918;2023-09-18T07:19:01;10.00;;;7.77;;
6436;SDS011;3251;53.550;9.918;2023-09-18T07:21:30;7.90;;;7.30;;
6436;SDS011;3251;53.550;9.918;2023-09-18T07:23:57;7.90;;;7.37;;
6436;SDS011;3251;53.550;9.918;2023-09-18T07:26:23;7.70;;;6.97;;
6436;SDS011;3251;53.550;9.918;2023-09-18T07:28:49;19.30;;;6.43;;
6436;SDS011;3251;53.550;9.918;2023-09-18T07:31:15;18.63;;;11.47;;
6436;SDS011;3251;53.550;9.918;2023-09-18T07:33:41;10.03;;;7.70;;
6436;SDS011;3251;53.550;9.918;2023-09-18T07:36:07;10.47;;;9.33;;
6436;SDS011;3251;53.550;9.918;2023-09-18T07:38:35;10.97;;;9.87;;
6436;SDS011;3251;53.550;9.918;2023-09-18T07:41:02;8.20;;;7.60;;
6436;SDS011;3251;53.550;9.918;2023-09-18T07:43:29;8.90;;;7.77;;
6436;SDS011;3251;53.550;9.918;2023-09-18T07:45:55;9.33;;;7.60;;
6436;SDS011;3251;53.550;9.918;2023-09-18T07:48:22;8.27;;;7.33;;
6436;SDS011;3251;53.550;9.918;2023-09-18T07:50:48;8.10;;;7.30;;
6436;SDS011;3251;53.550;9.918;2023-09-18T07:53:14;10.80;;;6.80;;
6436;SDS011;3251;53.550;9.918;2023-09-18T07:55:42;6.90;;;6.40;;
6436;SDS011;3251;53.550;9.918;2023-09-18T07:58:08;9.10;;;8.30;;
6436;SDS011;3251;53.550;9.918;2023-09-18T08:00:34;8.50;;;7.70;;
6436;SDS011;3251;53.550;9.918;2023-09-18T08:03:00;11.27;;;7.03;;
6436;SDS011;3251;53.550;9.918;2023-09-18T08:05:27;7.97;;;7.17;;
6436;SDS011;3251;53.550;9.918;2023-09-18T08:07:54;11.57;;;6.50;;
6436;SDS011;3251;53.550;9.918;2023-09-18T08:10:24;7.47;;;6.80;;
6436;SDS011;3251;53.550;9.918;2023-09-18T08:12:51;8.57;;;7.53;;
6436;SDS011;3251;53.550;9.918;2023-09-18T08:15:20;8.40;;;6.07;;
6436;SDS011;3251;53.550;9.918;2023-09-18T08:17:47;7.90;;;7.30;;
6436;SDS011;3251;53.550;9.918;2023-09-18T08:20:14;10.40;;;7.67;;
6436;SDS011;3251;53.550;9.918;2023-09-18T08:22:41;11.40;;;8.40;;
6436;SDS011;3251;53.550;9.918;2023-09-18T08:25:08;9.30;;;6.83;;
6436;SDS011;3251;53.550;9.918;2023-09-18T08:27:39;13.73;;;7.40;;
6436;SDS011;3251;53.550;9.918;2023-09-18T08:30:09;10.10;;;7.90;;
6436;SDS011;3251;53.550;9.918;2023-09-18T08:32:36;11.33;;;6.87;;
6436;SDS011;3251;53.550;9.918;2023-09-18T08:35:03;8.83;;;7.90;;
6436;SDS011;3251;53.550;9.918;2023-09-18T08:37:29;7.77;;;7.17;;
6436;SDS011;3251;53.550;9.918;2023-09-18T08:39:56;8.60;;;6.77;;
6436;SDS011;3251;53.550;9.918;2023-09-18T08:42:22;9.80;;;7.40;;
6436;SDS011;3251;53.550;9.918;2023-09-18T08:44:48;9.47;;;8.00;;
6436;SDS011;3251;53.550;9.918;2023-09-18T08:47:16;8.80;;;7.67;;
6436;SDS011;3251;53.550;9.918;2023-09-18T08:49:45;9.63;;;6.30;;
6436;SDS011;3251;53.550;9.918;2023-09-18T08:52:12;12.90;;;9.03;;
6436;SDS011;3251;53.550;9.918;2023-09-18T08:54:40;10.73;;;7.73;;
6436;SDS011;3251;53.550;9.918;2023-09-18T08:57:06;7.93;;;7.13;;
6436;SDS011;3251;53.550;9.918;2023-09-18T08:59:33;10.90;;;7.20;;
6436;SDS011;3251;53.550;9.918;2023-09-18T09:01:59;7.07;;;6.57;;
6436;SDS011;3251;53.550;9.918;2023-09-18T09:04:25;7.70;;;6.70;;
6436;SDS011;3251;53.550;9.918;2023-09-18T09:06:52;14.70;;;7.20;;
6436;SDS011;3251;53.550;9.918;2023-09-18T09:09:18;7.87;;;7.23;;
6436;SDS011;3251;53.550;9.918;2023-09-18T09:11:48;11.87;;;7.03;;
6436;SDS011;3251;53.550;9.918;2023-09-18T09:14:14;7.87;;;7.23;;
6436;SDS011;3251;53.550;9.918;2023-09-18T09:16:47;12.73;;;10.73;;
6436;SDS011;3251;53.550;9.918;2023-09-18T09:19:15;8.87;;;7.97;;
6436;SDS011;3251;53.550;9.918;2023-09-18T09:21:42;9.50;;;8.33;;
6436;SDS011;3251;53.550;9.918;2023-09-18T09:24:12;15.93;;;7.70;;
6436;SDS011;3251;53.550;9.918;2023-09-18T09:26:41;7.97;;;7.27;;
6436;SDS011;3251;53.550;9.918;2023-09-18T09:29:18;7.17;;;6.53;;
6436;SDS011;3251;53.550;9.918;2023-09-18T09:31:45;15.03;;;8.10;;
6436;SDS011;3251;53.550;9.918;2023-09-18T09:34:12;8.57;;;7.07;;
6436;SDS011;3251;53.550;9.918;2023-09-18T09:36:53;12.40;;;6.90;;
6436;SDS011;3251;53.550;9.918;2023-09-18T09:39:20;6.97;;;6.37;;
6436;SDS011;3251;53.550;9.918;2023-09-18T09:41:51;11.90;;;6.10;;
6436;SDS011;3251;53.550;9.918;2023-09-18T09:44:18;9.27;;;5.93;;
6436;SDS011;3251;53.550;9.918;2023-09-18T09:46:46;10.63;;;6.33;;
6436;SDS011;3251;53.550;9.918;2023-09-18T09:49:13;5.47;;;4.97;;
6436;SDS011;3251;53.550;9.918;2023-09-18T09:51:41;6.23;;;5.10;;
6436;SDS011;3251;53.550;9.918;2023-09-18T09:54:08;8.60;;;7.10;;
6436;SDS011;3251;53.550;9.918;2023-09-18T09:56:43;6.33;;;5.70;;
6436;SDS011;3251;53.550;9.918;2023-09-18T09:59:10;7.63;;;5.90;;
6436;SDS011;3251;53.550;9.918;2023-09-18T10:01:37;8.77;;;5.13;;
6436;SDS011;3251;53.550;9.918;2023-09-18T10:04:04;13.00;;;6.30;;
6436;SDS011;3251;53.550;9.918;2023-09-18T10:06:34;5.77;;;5.27;;
6436;SDS011;3251;53.550;9.918;2023-09-18T10:09:02;7.13;;;4.50;;
6436;SDS011;3251;53.550;9.918;2023-09-18T10:11:30;6.13;;;4.50;;
6436;SDS011;3251;53.550;9.918;2023-09-18T10:14:02;8.33;;;5.67;;
6436;SDS011;3251;53.550;9.918;2023-09-18T10:16:32;6.80;;;6.10;;
6436;SDS011;3251;53.550;9.918;2023-09-18T10:19:09;7.63;;;5.60;;
6436;SDS011;3251;53.550;9.918;2023-09-18T10:21:39;17.07;;;5.40;;
6436;SDS011;3251;53.550;9.918;2023-09-18T10:26:35;4.57;;;4.23;;
6436;SDS011;3251;53.550;9.918;2023-09-18T10:29:03;6.83;;;4.57;;
6436;SDS011;3251;53.550;9.918;2023-09-18T10:31:31;5.50;;;4.70;;
6436;SDS011;3251;53.550;9.918;2023-09-18T10:34:00;10.30;;;5.70;;
6436;SDS011;3251;53.550;9.918;2023-09-18T10:36:28;8.33;;;4.93;;
6436;SDS011;3251;53.550;9.918;2023-09-18T10:38:55;5.63;;;4.63;;
6436;SDS011;3251;53.550;9.918;2023-09-18T10:41:22;14.20;;;5.07;;
6436;SDS011;3251;53.550;9.918;2023-09-18T10:43:51;6.13;;;4.80;;
6436;SDS011;3251;53.550;9.918;2023-09-18T10:46:19;8.17;;;4.57;;
6436;SDS011;3251;53.550;9.918;2023-09-18T10:48:45;6.80;;;5.60;;
6436;SDS011;3251;53.550;9.918;2023-09-18T10:51:12;13.47;;;5.87;;
6436;SDS011;3251;53.550;9.918;2023-09-18T10:53:39;12.00;;;4.70;;
6436;SDS011;3251;53.550;9.918;2023-09-18T10:56:06;6.63;;;5.23;;
6436;SDS011;3251;53.550;9.918;2023-09-18T10:58:32;23.07;;;12.57;;
6436;SDS011;3251;53.550;9.918;2023-09-18T11:01:01;8.83;;;5.93;;
6436;SDS011;3251;53.550;9.918;2023-09-18T11:03:28;16.07;;;6.90;;
6436;SDS011;3251;53.550;9.918;2023-09-18T11:06:04;12.40;;;5.10;;
6436;SDS011;3251;53.550;9.918;2023-09-18T11:08:35;9.97;;;4.33;;
6436;SDS011;3251;53.550;9.918;2023-09-18T11:11:08;9.40;;;5.37;;
6436;SDS011;3251;53.550;9.918;2023-09-18T11:13:36;13.67;;;4.33;;
6436;SDS011;3251;53.550;9.918;2023-09-18T11:16:35;9.60;;;4.33;;
6436;SDS011;3251;53.550;9.918;2023-09-18T11:21:30;12.53;;;4.30;;
6436;SDS011;3251;53.550;9.918;2023-09-18T11:24:06;7.77;;;4.33;;
6436;SDS011;3251;53.550;9.918;2023-09-18T11:26:40;11.17;;;4.30;;
6436;SDS011;3251;53.550;9.918;2023-09-18T11:29:07;13.57;;;4.40;;
6436;SDS011;3251;53.550;9.918;2023-09-18T11:31:41;11.03;;;3.13;;
6436;SDS011;3251;53.550;9.918;2023-09-18T11:34:12;4.83;;;4.37;;
6436;SDS011;3251;53.550;9.918;2023-09-18T11:36:38;5.47;;;3.53;;
6436;SDS011;3251;53.550;9.918;2023-09-18T11:39:04;6.70;;;4.60;;
6436;SDS011;3251;53.550;9.918;2023-09-18T11:41:34;8.77;;;4.43;;
6436;SDS011;3251;53.550;9.918;2023-09-18T11:46:48;11.87;;;3.57;;
6436;SDS011;3251;53.550;9.918;2023-09-18T11:49:23;8.67;;;4.13;;
6436;SDS011;3251;53.550;9.918;2023-09-18T11:51:53;5.33;;;4.13;;
6436;SDS011;3251;53.550;9.918;2023-09-18T11:54:20;6.83;;;4.20;;
6436;SDS011;3251;53.550;9.918;2023-09-18T11:56:46;4.70;;;3.37;;
6436;SDS011;3251;53.550;9.918;2023-09-18T11:59:12;4.20;;;3.53;;
6436;SDS011;3251;53.550;9.918;2023-09-18T12:01:39;4.53;;;2.77;;
6436;SDS011;3251;53.550;9.918;2023-09-18T12:04:05;10.90;;;3.40;;
6436;SDS011;3251;53.550;9.918;2023-09-18T12:06:34;5.37;;;3.93;;
6436;SDS011;3251;53.550;9.918;2023-09-18T12:09:01;11.07;;;3.50;;
6436;SDS011;3251;53.550;9.918;2023-09-18T12:11:28;4.47;;;3.60;;
6436;SDS011;3251;53.550;9.918;2023-09-18T12:13:55;8.80;;;4.13;;
6436;SDS011;3251;53.550;9.918;2023-09-18T12:16:23;4.00;;;3.13;;
6436;SDS011;3251;53.550;9.918;2023-09-18T12:18:49;8.90;;;3.40;;
6436;SDS011;3251;53.550;9.918;2023-09-18T12:21:16;10.43;;;3.80;;
6436;SDS011;3251;53.550;9.918;2023-09-18T12:23:43;11.50;;;3.63;;
6436;SDS011;3251;53.550;9.918;2023-09-18T12:26:10;6.17;;;3.60;;
6436;SDS011;3251;53.550;9.918;2023-09-18T12:28:39;7.13;;;3.90;;
6436;SDS011;3251;53.550;9.918;2023-09-18T12:31:05;5.20;;;3.20;;
6436;SDS011;3251;53.550;9.918;2023-09-18T12:33:35;6.37;;;3.33;;
6436;SDS011;3251;53.550;9.918;2023-09-18T12:36:02;8.10;;;2.97;;
6436;SDS011;3251;53.550;9.918;2023-09-18T12:38:30;9.93;;;3.27;;
6436;SDS011;3251;53.550;9.918;2023-09-18T12:40:56;4.07;;;3.33;;
6436;SDS011;3251;53.550;9.918;2023-09-18T12:43:35;9.03;;;3.20;;
6436;SDS011;3251;53.550;9.918;2023-09-18T12:46:01;4.93;;;3.20;;
6436;SDS011;3251;53.550;9.918;2023-09-18T12:48:28;7.23;;;4.00;;
6436;SDS011;3251;53.550;9.918;2023-09-18T12:50:54;4.10;;;2.80;;
6436;SDS011;3251;53.550;9.918;2023-09-18T12:53:21;16.80;;;3.47;;
6436;SDS011;3251;53.550;9.918;2023-09-18T12:55:48;11.07;;;6.20;;
6436;SDS011;3251;53.550;9.918;2023-09-18T12:58:18;7.53;;;4.80;;
6436;SDS011;3251;53.550;9.918;2023-09-18T13:00:46;9.20;;;3.57;;
6436;SDS011;3251;53.550;9.918;2023-09-18T13:03:12;9.80;;;4.10;;
6436;SDS011;3251;53.550;9.918;2023-09-18T13:05:39;10.40;;;3.37;;
6436;SDS011;3251;53.550;9.918;2023-09-18T13:08:05;5.70;;;2.33;;
6436;SDS011;3251;53.550;9.918;2023-09-18T13:10:42;6.93;;;2.47;;
6436;SDS011;3251;53.550;9.918;2023-09-18T13:13:15;4.17;;;3.30;;
6436;SDS011;3251;53.550;9.918;2023-09-18T13:15:41;4.23;;;2.67;;
6436;SDS011;3251;53.550;9.918;2023-09-18T13:18:10;7.77;;;2.10;;
6436;SDS011;3251;53.550;9.918;2023-09-18T13:20:37;5.67;;;2.20;;
6436;SDS011;3251;53.550;9.918;2023-09-18T13:23:05;3.97;;;2.27;;
6436;SDS011;3251;53.550;9.918;2023-09-18T13:25:35;4.27;;;2.37;;
6436;SDS011;3251;53.550;9.918;2023-09-18T13:28:03;3.27;;;2.40;;
6436;SDS011;3251;53.550;9.918;2023-09-18T13:30:30;8.90;;;2.10;;
6436;SDS011;3251;53.550;9.918;2023-09-18T13:33:02;6.97;;;3.17;;
6436;SDS011;3251;53.550;9.918;2023-09-18T13:35:29;3.67;;;3.00;;
6436;SDS011;3251;53.550;9.918;2023-09-18T13:37:55;2.80;;;2.43;;
6436;SDS011;3251;53.550;9.918;2023-09-18T13:40:21;11.10;;;2.90;;
6436;SDS011;3251;53.550;9.918;2023-09-18T13:42:48;7.60;;;3.20;;
6436;SDS011;3251;53.550;9.918;2023-09-18T13:45:14;5.83;;;2.40;;
6436;SDS011;3251;53.550;9.918;2023-09-18T13:47:43;6.67;;;2.50;;
6436;SDS011;3251;53.550;9.918;2023-09-18T13:50:09;7.83;;;3.33;;
6436;SDS011;3251;53.550;9.918;2023-09-18T13:52:36;3.47;;;2.67;;
6436;SDS011;3251;53.550;9.918;2023-09-18T13:55:03;5.20;;;2.47;;
6436;SDS011;3251;53.550;9.918;2023-09-18T13:57:34;5.50;;;3.03;;
6436;SDS011;3251;53.550;9.918;2023-09-18T14:00:02;5.47;;;2.53;;
6436;SDS011;3251;53.550;9.918;2023-09-18T14:02:40;6.10;;;2.87;;
6436;SDS011;3251;53.550;9.918;2023-09-18T14:05:07;4.10;;;3.00;;
6436;SDS011;3251;53.550;9.918;2023-09-18T14:07:34;6.60;;;3.00;;
6436;SDS011;3251;53.550;9.918;2023-09-18T14:10:00;10.07;;;2.77;;
6436;SDS011;3251;53.550;9.918;2023-09-18T14:12:30;7.23;;;3.40;;
6436;SDS011;3251;53.550;9.918;2023-09-18T14:14:57;8.10;;;4.60;;
6436;SDS011;3251;53.550;9.918;2023-09-18T14:17:23;4.83;;;3.40;;
6436;SDS011;3251;53.550;9.918;2023-09-18T14:19:49;5.53;;;4.50;;
6436;SDS011;3251;53.550;9.918;2023-09-18T14:22:17;5.30;;;3.40;;
6436;SDS011;3251;53.550;9.918;2023-09-18T14:24:43;7.80;;;4.40;;
6436;SDS011;3251;53.550;9.918;2023-09-18T14:27:09;8.37;;;3.53;;
6436;SDS011;3251;53.550;9.918;2023-09-18T14:29:37;4.60;;;3.43;;
6436;SDS011;3251;53.550;9.918;2023-09-18T14:32:03;13.27;;;3.80;;
6436;SDS011;3251;53.550;9.918;2023-09-18T14:34:30;4.23;;;3.47;;
6436;SDS011;3251;53.550;9.918;2023-09-18T14:36:59;3.97;;;3.50;;
6436;SDS011;3251;53.550;9.918;2023-09-18T14:39:25;5.63;;;2.83;;
6436;SDS011;3251;53.550;9.918;2023-09-18T14:41:51;7.73;;;3.43;;
6436;SDS011;3251;53.550;9.918;2023-09-18T14:44:17;6.67;;;4.40;;
6436;SDS011;3251;53.550;9.918;2023-09-18T14:46:44;3.20;;;2.63;;
6436;SDS011;3251;53.550;9.918;2023-09-18T14:49:10;4.93;;;3.90;;
6436;SDS011;3251;53.550;9.918;2023-09-18T14:51:36;6.13;;;2.50;;
6436;SDS011;3251;53.550;9.918;2023-09-18T14:54:02;4.17;;;3.60;;
6436;SDS011;3251;53.550;9.918;2023-09-18T14:56:30;5.23;;;3.50;;
6436;SDS011;3251;53.550;9.918;2023-09-18T14:58:56;5.90;;;2.40;;
6436;SDS011;3251;53.550;9.918;2023-09-18T15:01:23;11.30;;;2.60;;
6436;SDS011;3251;53.550;9.918;2023-09-18T15:03:49;6.80;;;2.47;;
6436;SDS011;3251;53.550;9.918;2023-09-18T15:06:16;6.43;;;2.70;;
6436;SDS011;3251;53.550;9.918;2023-09-18T15:08:42;7.77;;;2.03;;
6436;SDS011;3251;53.550;9.918;2023-09-18T15:11:09;5.00;;;1.80;;
6436;SDS011;3251;53.550;9.918;2023-09-18T15:13:35;2.80;;;2.60;;
6436;SDS011;3251;53.550;9.918;2023-09-18T15:16:02;23.07;;;15.10;;
6436;SDS011;3251;53.550;9.918;2023-09-18T15:18:28;7.13;;;5.20;;
6436;SDS011;3251;53.550;9.918;2023-09-18T15:20:54;2.30;;;2.10;;
6436;SDS011;3251;53.550;9.918;2023-09-18T15:23:24;8.67;;;3.07;;
6436;SDS011;3251;53.550;9.918;2023-09-18T15:25:50;3.97;;;2.50;;
6436;SDS011;3251;53.550;9.918;2023-09-18T15:28:18;4.67;;;2.10;;
6436;SDS011;3251;53.550;9.918;2023-09-18T15:30:45;5.03;;;2.07;;
6436;SDS011;3251;53.550;9.918;2023-09-18T15:33:11;3.00;;;1.60;;
6436;SDS011;3251;53.550;9.918;2023-09-18T15:35:37;7.97;;;2.00;;
6436;SDS011;3251;53.550;9.918;2023-09-18T15:38:04;3.93;;;2.80;;
6436;SDS011;3251;53.550;9.918;2023-09-18T15:40:31;5.97;;;2.27;;
6436;SDS011;3251;53.550;9.918;2023-09-18T15:42:58;2.03;;;1.83;;
6436;SDS011;3251;53.550;9.918;2023-09-18T15:45:24;2.13;;;1.77;;
6436;SDS011;3251;53.550;9.918;2023-09-18T15:47:50;4.27;;;1.97;;
6436;SDS011;3251;53.550;9.918;2023-09-18T15:50:17;2.60;;;1.80;;
6436;SDS011;3251;53.550;9.918;2023-09-18T15:52:43;8.10;;;2.63;;
6436;SDS011;3251;53.550;9.918;2023-09-18T15:55:09;18.70;;;4.30;;
6436;SDS011;3251;53.550;9.918;2023-09-18T15:57:36;3.90;;;1.80;;
6436;SDS011;3251;53.550;9.918;2023-09-18T16:00:04;6.27;;;2.20;;
6436;SDS011;3251;53.550;9.918;2023-09-18T16:02:37;2.40;;;1.70;;
6436;SDS011;3251;53.550;9.918;2023-09-18T16:05:03;11.67;;;2.57;;
6436;SDS011;3251;53.550;9.918;2023-09-18T16:07:30;5.60;;;2.20;;
6436;SDS011;3251;53.550;9.918;2023-09-18T16:09:56;3.63;;;2.23;;
6436;SDS011;3251;53.550;9.918;2023-09-18T16:12:24;3.83;;;1.77;;
6436;SDS011;3251;53.550;9.918;2023-09-18T16:14:50;9.40;;;2.07;;
6436;SDS011;3251;53.550;9.918;2023-09-18T16:17:16;4.77;;;2.20;;
6436;SDS011;3251;53.550;9.918;2023-09-18T16:19:42;4.13;;;1.90;;
6436;SDS011;3251;53.550;9.918;2023-09-18T16:22:08;3.50;;;1.77;;
6436;SDS011;3251;53.550;9.918;2023-09-18T16:24:36;2.90;;;1.40;;
6436;SDS011;3251;53.550;9.918;2023-09-18T16:27:02;6.33;;;2.13;;
6436;SDS011;3251;53.550;9.918;2023-09-18T16:29:30;3.37;;;2.20;;
6436;SDS011;3251;53.550;9.918;2023-09-18T16:31:57;2.33;;;1.60;;
6436;SDS011;3251;53.550;9.918;2023-09-18T16:34:23;4.10;;;2.43;;
6436;SDS011;3251;53.550;9.918;2023-09-18T16:36:50;3.70;;;2.27;;
6436;SDS011;3251;53.550;9.918;2023-09-18T16:39:17;7.40;;;3.83;;
6436;SDS011;3251;53.550;9.918;2023-09-18T16:41:44;5.70;;;1.63;;
6436;SDS011;3251;53.550;9.918;2023-09-18T16:44:10;10.53;;;2.60;;
6436;SDS011;3251;53.550;9.918;2023-09-18T16:46:37;3.73;;;1.97;;
6436;SDS011;3251;53.550;9.918;2023-09-18T16:49:04;4.73;;;2.10;;
6436;SDS011;3251;53.550;9.918;2023-09-18T16:51:30;2.40;;;2.20;;
6436;SDS011;3251;53.550;9.918;2023-09-18T16:53:57;4.03;;;2.73;;
6436;SDS011;3251;53.550;9.918;2023-09-18T16:56:24;2.00;;;1.90;;
6436;SDS011;3251;53.550;9.918;2023-09-18T16:58:51;2.10;;;1.77;;
6436;SDS011;3251;53.550;9.918;2023-09-18T17:01:17;6.03;;;2.37;;
6436;SDS011;3251;53.550;9.918;2023-09-18T17:03:43;10.93;;;1.87;;
6436;SDS011;3251;53.550;9.918;2023-09-18T17:06:10;2.67;;;2.30;;
6436;SDS011;3251;53.550;9.918;2023-09-18T17:08:36;3.67;;;1.60;;
6436;SDS011;3251;53.550;9.918;2023-09-18T17:11:02;4.23;;;2.07;;
6436;SDS011;3251;53.550;9.918;2023-09-18T17:13:31;5.43;;;1.80;;
6436;SDS011;3251;53.550;9.918;2023-09-18T17:15:58;2.80;;;2.60;;
6436;SDS011;3251;53.550;9.918;2023-09-18T17:18:24;6.03;;;2.90;;
6436;SDS011;3251;53.550;9.918;2023-09-18T17:20:50;2.40;;;2.20;;
6436;SDS011;3251;53.550;9.918;2023-09-18T17:23:17;5.00;;;1.93;;
6436;SDS011;3251;53.550;9.918;2023-09-18T17:25:43;2.90;;;2.27;;
6436;SDS011;3251;53.550;9.918;2023-09-18T17:28:09;2.33;;;2.13;;
6436;SDS011;3251;53.550;9.918;2023-09-18T17:30:36;4.13;;;1.67;;
6436;SDS011;3251;53.550;9.918;2023-09-18T17:33:03;7.87;;;3.90;;
6436;SDS011;3251;53.550;9.918;2023-09-18T17:35:29;4.27;;;2.63;;
6436;SDS011;3251;53.550;9.918;2023-09-18T17:37:57;7.97;;;2.10;;
6436;SDS011;3251;53.550;9.918;2023-09-18T17:40:23;8.17;;;2.33;;
6436;SDS011;3251;53.550;9.918;2023-09-18T17:42:50;10.13;;;2.10;;
6436;SDS011;3251;53.550;9.918;2023-09-18T17:45:18;2.20;;;1.97;;
6436;SDS011;3251;53.550;9.918;2023-09-18T17:47:44;11.87;;;5.33;;
6436;SDS011;3251;53.550;9.918;2023-09-18T17:50:11;4.57;;;1.93;;
6436;SDS011;3251;53.550;9.918;2023-09-18T17:52:38;2.90;;;2.60;;
6436;SDS011;3251;53.550;9.918;2023-09-18T17:55:06;4.60;;;2.93;;
6436;SDS011;3251;53.550;9.918;2023-09-18T17:57:33;4.50;;;2.83;;
6436;SDS011;3251;53.550;9.918;2023-09-18T18:00:04;5.03;;;1.63;;
6436;SDS011;3251;53.550;9.918;2023-09-18T18:02:32;2.80;;;2.60;;
6436;SDS011;3251;53.550;9.918;2023-09-18T18:04:58;8.93;;;2.60;;
6436;SDS011;3251;53.550;9.918;2023-09-18T18:07:24;6.40;;;2.50;;
6436;SDS011;3251;53.550;9.918;2023-09-18T18:09:50;2.47;;;2.27;;
6436;SDS011;3251;53.550;9.918;2023-09-18T18:12:16;6.13;;;2.17;;
6436;SDS011;3251;53.550;9.918;2023-09-18T18:14:43;11.47;;;2.30;;
6436;SDS011;3251;53.550;9.918;2023-09-18T18:17:09;3.97;;;2.40;;
6436;SDS011;3251;53.550;9.918;2023-09-18T18:19:35;6.70;;;2.30;;
6436;SDS011;3251;53.550;9.918;2023-09-18T18:22:01;15.67;;;4.53;;
6436;SDS011;3251;53.550;9.918;2023-09-18T18:24:29;3.83;;;2.40;;
6436;SDS011;3251;53.550;9.918;2023-09-18T18:26:55;8.20;;;3.13;;
6436;SDS011;3251;53.550;9.918;2023-09-18T18:29:21;7.87;;;2.53;;
6436;SDS011;3251;53.550;9.918;2023-09-18T18:31:48;5.23;;;2.70;;
6436;SDS011;3251;53.550;9.918;2023-09-18T18:34:15;9.10;;;4.30;;
6436;SDS011;3251;53.550;9.918;2023-09-18T18:36:42;2.60;;;2.40;;
6436;SDS011;3251;53.550;9.918;2023-09-18T18:39:10;3.60;;;2.33;;
6436;SDS011;3251;53.550;9.918;2023-09-18T18:41:36;3.43;;;3.13;;
6436;SDS011;3251;53.550;9.918;2023-09-18T18:44:02;7.57;;;2.63;;
6436;SDS011;3251;53.550;9.918;2023-09-18T18:46:28;10.10;;;2.70;;
6436;SDS011;3251;53.550;9.918;2023-09-18T18:48:56;4.40;;;3.70;;
6436;SDS011;3251;53.550;9.918;2023-09-18T18:51:23;11.90;;;5.20;;
6436;SDS011;3251;53.550;9.918;2023-09-18T18:53:50;10.70;;;4.17;;
6436;SDS011;3251;53.550;9.918;2023-09-18T18:56:17;3.30;;;1.70;;
6436;SDS011;3251;53.550;9.918;2023-09-18T18:58:47;4.67;;;2.23;;
6436;SDS011;3251;53.550;9.918;2023-09-18T19:01:14;5.70;;;2.20;;
6436;SDS011;3251;53.550;9.918;2023-09-18T19:03:43;22.67;;;8.97;;
6436;SDS011;3251;53.550;9.918;2023-09-18T19:06:09;8.67;;;3.17;;
6436;SDS011;3251;53.550;9.918;2023-09-18T19:08:36;2.67;;;2.47;;
6436;SDS011;3251;53.550;9.918;2023-09-18T19:11:03;7.10;;;3.17;;
6436;SDS011;3251;53.550;9.918;2023-09-18T19:13:31;7.03;;;3.73;;
6436;SDS011;3251;53.550;9.918;2023-09-18T19:15:57;3.30;;;2.97;;
6436;SDS011;3251;53.550;9.918;2023-09-18T19:18:24;7.73;;;3.00;;
6436;SDS011;3251;53.550;9.918;2023-09-18T19:20:57;4.43;;;3.17;;
6436;SDS011;3251;53.550;9.918;2023-09-18T19:23:23;3.80;;;2.80;;
6436;SDS011;3251;53.550;9.918;2023-09-18T19:25:52;8.30;;;3.03;;
6436;SDS011;3251;53.550;9.918;2023-09-18T19:28:18;14.23;;;10.40;;
6436;SDS011;3251;53.550;9.918;2023-09-18T19:30:44;12.40;;;5.00;;
6436;SDS011;3251;53.550;9.918;2023-09-18T19:33:12;2.63;;;2.43;;
6436;SDS011;3251;53.550;9.918;2023-09-18T19:35:38;3.33;;;2.27;;
6436;SDS011;3251;53.550;9.918;2023-09-18T19:38:04;5.47;;;2.47;;
6436;SDS011;3251;53.550;9.918;2023-09-18T19:40:30;6.47;;;2.10;;
6436;SDS011;3251;53.550;9.918;2023-09-18T19:42:57;8.13;;;3.43;;
6436;SDS011;3251;53.550;9.918;2023-09-18T19:45:24;3.07;;;2.00;;
6436;SDS011;3251;53.550;9.918;2023-09-18T19:47:51;6.87;;;2.33;;
6436;SDS011;3251;53.550;9.918;2023-09-18T19:50:18;7.00;;;1.63;;
6436;SDS011;3251;53.550;9.918;2023-09-18T19:52:44;2.87;;;1.87;;
6436;SDS011;3251;53.550;9.918;2023-09-18T19:55:10;3.60;;;2.23;;
6436;SDS011;3251;53.550;9.918;2023-09-18T19:57:38;4.90;;;2.40;;
6436;SDS011;3251;53.550;9.918;2023-09-18T20:00:05;4.80;;;1.90;;
6436;SDS011;3251;53.550;9.918;2023-09-18T20:02:37;3.10;;;2.20;;
6436;SDS011;3251;53.550;9.918;2023-09-18T20:05:05;3.50;;;2.87;;
6436;SDS011;3251;53.550;9.918;2023-09-18T20:07:31;4.57;;;1.57;;
6436;SDS011;3251;53.550;9.918;2023-09-18T20:09:58;3.50;;;1.40;;
6436;SDS011;3251;53.550;9.918;2023-09-18T20:12:24;2.50;;;2.27;;
6436;SDS011;3251;53.550;9.918;2023-09-18T20:14:53;3.83;;;2.83;;
6436;SDS011;3251;53.550;9.918;2023-09-18T20:17:19;3.93;;;2.40;;
6436;SDS011;3251;53.550;9.918;2023-09-18T20:19:48;5.50;;;1.20;;
6436;SDS011;3251;53.550;9.918;2023-09-18T20:22:15;3.03;;;1.53;;
6436;SDS011;3251;53.550;9.918;2023-09-18T20:24:44;10.20;;;1.47;;
6436;SDS011;3251;53.550;9.918;2023-09-18T20:27:11;2.40;;;1.00;;
6436;SDS011;3251;53.550;9.918;2023-09-18T20:29:38;1.93;;;1.60;;
6436;SDS011;3251;53.550;9.918;2023-09-18T20:32:04;17.37;;;1.27;;
6436;SDS011;3251;53.550;9.918;2023-09-18T20:34:30;1.87;;;1.23;;
6436;SDS011;3251;53.550;9.918;2023-09-18T20:36:57;6.30;;;4.30;;
6436;SDS011;3251;53.550;9.918;2023-09-18T20:39:23;11.60;;;7.40;;
6436;SDS011;3251;53.550;9.918;2023-09-18T20:41:49;2.57;;;2.37;;
6436;SDS011;3251;53.550;9.918;2023-09-18T20:44:17;2.00;;;1.87;;
6436;SDS011;3251;53.550;9.918;2023-09-18T20:46:43;1.50;;;1.40;;
6436;SDS011;3251;53.550;9.918;2023-09-18T20:49:10;2.00;;;1.53;;
6436;SDS011;3251;53.550;9.918;2023-09-18T20:51:36;1.97;;;1.53;;
6436;SDS011;3251;53.550;9.918;2023-09-18T20:54:02;1.40;;;1.30;;
6436;SDS011;3251;53.550;9.918;2023-09-18T20:56:28;3.57;;;1.40;;
6436;SDS011;3251;53.550;9.918;2023-09-18T20:58:59;2.70;;;0.93;;
6436;SDS011;3251;53.550;9.918;2023-09-18T21:01:25;1.83;;;1.57;;
6436;SDS011;3251;53.550;9.918;2023-09-18T21:03:54;1.63;;;1.53;;
6436;SDS011;3251;53.550;9.918;2023-09-18T21:06:20;1.87;;;0.80;;
6436;SDS011;3251;53.550;9.918;2023-09-18T21:08:47;1.00;;;0.90;;
6436;SDS011;3251;53.550;9.918;2023-09-18T21:11:13;4.30;;;1.13;;
6436;SDS011;3251;53.550;9.918;2023-09-18T21:13:39;2.00;;;1.20;;
6436;SDS011;3251;53.550;9.918;2023-09-18T21:16:17;1.43;;;1.10;;
6436;SDS011;3251;53.550;9.918;2023-09-18T21:18:44;1.00;;;0.80;;
6436;SDS011;3251;53.550;9.918;2023-09-18T21:21:10;1.90;;;0.80;;
6436;SDS011;3251;53.550;9.918;2023-09-18T21:23:37;1.90;;;1.40;;
6436;SDS011;3251;53.550;9.918;2023-09-18T21:26:03;2.43;;;1.33;;
6436;SDS011;3251;53.550;9.918;2023-09-18T21:28:29;1.20;;;1.10;;
6436;SDS011;3251;53.550;9.918;2023-09-18T21:33:35;1.83;;;1.00;;
6436;SDS011;3251;53.550;9.918;2023-09-18T21:36:01;1.00;;;0.80;;
6436;SDS011;3251;53.550;9.918;2023-09-18T21:38:27;1.57;;;1.47;;
6436;SDS011;3251;53.550;9.918;2023-09-18T21:40:56;3.63;;;1.13;;
6436;SDS011;3251;53.550;9.918;2023-09-18T21:43:22;2.10;;;0.87;;
6436;SDS011;3251;53.550;9.918;2023-09-18T21:45:50;1.47;;;0.87;;
6436;SDS011;3251;53.550;9.918;2023-09-18T21:48:17;2.30;;;0.90;;
6436;SDS011;3251;53.550;9.918;2023-09-18T21:50:43;0.93;;;0.80;;
6436;SDS011;3251;53.550;9.918;2023-09-18T21:53:09;3.20;;;1.10;;
6436;SDS011;3251;53.550;9.918;2023-09-18T21:55:35;1.70;;;1.13;;
6436;SDS011;3251;53.550;9.918;2023-09-18T21:58:01;2.30;;;0.90;;
6436;SDS011;3251;53.550;9.918;2023-09-18T22:00:28;2.93;;;1.10;;
6436;SDS011;3251;53.550;9.918;2023-09-18T22:02:55;2.50;;;0.80;;
6436;SDS011;3251;53.550;9.918;2023-09-18T22:05:21;1.30;;;0.60;;
6436;SDS011;3251;53.550;9.918;2023-09-18T22:07:47;3.20;;;0.80;;
6436;SDS011;3251;53.550;9.918;2023-09-18T22:10:14;3.87;;;0.90;;
6436;SDS011;3251;53.550;9.918;2023-09-18T22:12:41;1.10;;;0.70;;
6436;SDS011;3251;53.550;9.918;2023-09-18T22:15:07;1.57;;;0.80;;
6436;SDS011;3251;53.550;9.918;2023-09-18T22:17:33;4.70;;;0.90;;
6436;SDS011;3251;53.550;9.918;2023-09-18T22:20:00;1.07;;;0.97;;
6436;SDS011;3251;53.550;9.918;2023-09-18T22:22:28;1.67;;;1.23;;
6436;SDS011;3251;53.550;9.918;2023-09-18T22:24:55;0.90;;;0.60;;